Argent Gerbera — V7UC4 — position and weather

sailwx.info

Track history (hours):
 
Tides and Currents Weather Stations Pressure Air Temp Water Temp Dewpoint Dewpoint Depression Visibility Wind Speed Wind Dir Waves Ship Positions

Argent Gerbera

Last reported at 2016-Aug-17 22:07 UTC. Time now 2016-Aug-27 04:43 UTC.
Position N 48°31' W 126°60'.
Warning: this ship's position is 9 days out of date.

Length 175 m; draft 10.7 m.

Type: Ship (hazmat cat B). MMSI: 538003929.

Date/timePositionNaut miles runAvg speedWind from/ knotsBaromVisibWave heightAir tempDewpointWater temp
2016-Aug-17 22:07N 48°31' W 126°60'1113.6
2016-Aug-17 21:21N 48°31' W 126°44'1113.7
2016-Aug-17 20:33N 48°31' W 126°27'1414.0
2016-Aug-17 19:34N 48°31' W 126°06'1414.2
2016-Aug-17 18:33N 48°31' W 125°45'1414.2
2016-Aug-17 17:33N 48°31' W 125°23'1515.0
2016-Aug-17 16:33N 48°31' W 125°01'1615.6
2016-Aug-17 15:33N 48°29' W 124°37'1716.5
2016-Aug-17 14:33N 48°23' W 124°14'1716.9
2016-Aug-17 13:33N 48°17' W 123°50'1515.0
2016-Aug-17 12:33N 48°18' W 123°28'1212.1
2016-Aug-17 11:33N 48°25' W 123°13'1515.2
2016-Aug-17 10:33N 48°40' W 123°15'1312.9
2016-Aug-17 09:33N 48°48' W 123°01'1514.9
2016-Aug-17 08:33N 48°59' W 123°17'1313.5
2016-Aug-17 07:33N 49°12' W 123°22'1111.2
2016-Aug-17 06:33N 49°19' W 123°08'4 4.2
2016-Aug-17 05:31N 49°18' W 123°02'0 0.0
2016-Aug-17 04:33N 49°18' W 123°02'0 0.0
2016-Aug-17 03:33N 49°18' W 123°02'0 0.0
2016-Aug-17 02:33N 49°18' W 123°02'0 0.0
2016-Aug-17 01:33N 49°18' W 123°02'0 0.0
2016-Aug-17 00:34N 49°18' W 123°02'0 0.0
2016-Aug-16 23:33N 49°18' W 123°02'0 0.0
2016-Aug-16 22:33N 49°18' W 123°02'0 0.0
2016-Aug-16 21:33N 49°18' W 123°02'0 0.0
2016-Aug-16 20:33N 49°18' W 123°02'0 0.0
2016-Aug-16 19:33N 49°18' W 123°02'0 0.0
2016-Aug-16 18:33N 49°18' W 123°02'0 0.0
2016-Aug-16 17:33N 49°18' W 123°02'0 0.0
2016-Aug-16 16:33N 49°18' W 123°02'0 0.0
2016-Aug-16 15:33N 49°18' W 123°02'0 0.0
2016-Aug-16 14:33N 49°18' W 123°02'0 0.0
2016-Aug-16 13:33N 49°18' W 123°02'0 0.0
2016-Aug-16 12:33N 49°18' W 123°02'0 0.0
2016-Aug-16 11:33N 49°18' W 123°02'0 0.0
2016-Aug-16 10:33N 49°18' W 123°02'0 0.0
2016-Aug-16 09:33N 49°18' W 123°02'0 0.0
2016-Aug-16 08:33N 49°18' W 123°02'0 0.0
2016-Aug-16 07:34N 49°18' W 123°02'0 0.0
2016-Aug-16 04:33N 49°18' W 123°02'0 0.0
2016-Aug-16 03:33N 49°18' W 123°02'0 0.0
2016-Aug-16 02:33N 49°18' W 123°02'0 0.0
2016-Aug-16 01:33N 49°18' W 123°02'1 1.1
2016-Aug-16 00:33N 49°18' W 123°00'5 4.5
2016-Aug-15 23:33N 49°18' W 122°53'1 0.8
2016-Aug-15 22:32N 49°17' W 122°52'0 0.0
2016-Aug-15 21:32N 49°17' W 122°52'0 0.0
2016-Aug-15 20:32N 49°17' W 122°52'0 0.0
2016-Aug-15 19:26N 49°17' W 122°52'0 0.0
2016-Aug-15 18:32N 49°17' W 122°52'0 0.0
2016-Aug-15 17:32N 49°17' W 122°52'0 0.0
2016-Aug-15 16:29N 49°17' W 122°52'0 0.0
2016-Aug-15 15:32N 49°17' W 122°52'0 0.0
2016-Aug-15 14:32N 49°17' W 122°52'0 0.0
2016-Aug-15 13:32N 49°17' W 122°52'0 0.0
2016-Aug-15 12:32N 49°17' W 122°52'0 0.0
2016-Aug-15 11:32N 49°17' W 122°52'0 0.0
2016-Aug-15 10:32N 49°17' W 122°52'0 0.0
2016-Aug-15 09:32N 49°17' W 122°52'0 0.0
2016-Aug-15 08:32N 49°17' W 122°52'0 0.0
2016-Aug-15 07:32N 49°17' W 122°52'0 0.0
2016-Aug-15 06:32N 49°17' W 122°52'0 0.0
2016-Aug-15 04:32N 49°17' W 122°52'0 0.0
2016-Aug-15 03:32N 49°17' W 122°52'0 0.0
2016-Aug-15 02:32N 49°17' W 122°52'0 0.0
2016-Aug-15 01:32N 49°17' W 122°52'0 0.0
2016-Aug-15 00:32N 49°17' W 122°52'0 0.0
2016-Aug-14 23:23N 49°17' W 122°52'0 0.0
2016-Aug-14 22:32N 49°17' W 122°52'0 0.0
2016-Aug-14 21:29N 49°17' W 122°52'0 0.0
2016-Aug-14 20:32N 49°17' W 122°52'0 0.0
2016-Aug-14 19:32N 49°17' W 122°52'0 0.0
2016-Aug-14 18:32N 49°17' W 122°52'3 3.1
2016-Aug-14 17:33N 49°18' W 122°57'5 4.6
2016-Aug-14 16:33N 49°18' W 123°04'0 0.4
2016-Aug-14 15:33N 49°17' W 123°04'0 0.0
2016-Aug-14 14:33N 49°17' W 123°04'0 0.0
2016-Aug-14 13:33N 49°17' W 123°04'0 0.0
2016-Aug-14 12:33N 49°17' W 123°04'0 0.0
2016-Aug-14 11:33N 49°17' W 123°04'0 0.0
2016-Aug-14 10:33N 49°17' W 123°04'0 0.0
2016-Aug-14 09:33N 49°17' W 123°04'0 0.0
2016-Aug-14 08:33N 49°17' W 123°04'0 0.0
2016-Aug-14 07:30N 49°17' W 123°04'0 0.0
2016-Aug-14 06:33N 49°17' W 123°04'0 0.0
2016-Aug-14 04:33N 49°17' W 123°04'0 0.0
2016-Aug-14 03:33N 49°17' W 123°04'0 0.0
2016-Aug-14 02:33N 49°17' W 123°04'0 0.0
2016-Aug-14 01:33N 49°17' W 123°04'0 0.2
2016-Aug-14 00:33N 49°17' W 123°04'8 7.8
2016-Aug-13 23:34N 49°18' W 123°16'1413.9
2016-Aug-13 22:33N 49°04' W 123°20'1414.2
2016-Aug-13 21:33N 48°54' W 123°05'1211.5
2016-Aug-13 20:33N 48°43' W 123°10'1313.2
2016-Aug-13 19:33N 48°30' W 123°10'1313.0
2016-Aug-13 18:33N 48°20' W 123°24'1111.3
2016-Aug-13 17:33N 48°14' W 123°38'1514.5
2016-Aug-13 16:32N 48°15' W 123°60'1211.9
2016-Aug-13 15:34N 48°20' W 124°15'1414.2
2016-Aug-13 14:33N 48°26' W 124°35'1313.0
2016-Aug-13 13:33N 48°29' W 124°54'1313.2
2016-Aug-13 12:33N 48°25' W 125°13'1514.6
2016-Aug-13 11:33N 48°13' W 125°24'1414.4
2016-Aug-13 10:33N 48°01' W 125°37'1413.6
2016-Aug-13 09:33N 47°47' W 125°37'1414.0
2016-Aug-13 08:34N 47°33' W 125°37'1413.7
2016-Aug-13 07:33N 47°19' W 125°37'1211.7
2016-Aug-13 06:33N 47°11' W 125°26'1414.4
2016-Aug-13 05:33N 47°06' W 125°06'1414.4
2016-Aug-13 04:33N 47°00' W 124°47'1414.2
2016-Aug-13 03:34N 46°55' W 124°28'1110.5
2016-Aug-13 02:33N 46°53' W 124°12'8 8.1
2016-Aug-13 01:33N 46°56' W 124°01'3 0.1
2016-Aug-11 17:07N 46°58' W 123°57'3 5.9
2016-Aug-11 16:33N 46°56' W 124°01'8 8.3
2016-Aug-11 15:34N 46°53' W 124°13'5 4.9
2016-Aug-11 14:34N 46°49' W 124°16'6 6.1
2016-Aug-11 13:33N 46°47' W 124°25'1312.9
2016-Aug-11 12:33N 46°40' W 124°41'1313.5
2016-Aug-11 11:34N 46°33' W 124°57'1413.5
2016-Aug-11 10:33N 46°25' W 125°13'1413.3
2016-Aug-11 09:29N 46°14' W 125°26'1112.1
2016-Aug-11 08:34N 46°04' W 125°18'1212.2
2016-Aug-11 07:34N 45°52' W 125°16'1212.3
2016-Aug-11 06:33N 45°40' W 125°16'1212.1
2016-Aug-11 05:34N 45°28' W 125°15'1212.1
2016-Aug-11 04:34N 45°16' W 125°13'1312.6
2016-Aug-11 03:33N 45°03' W 125°15'1312.6
2016-Aug-11 02:33N 44°50' W 125°16'1312.5
2016-Aug-11 01:31N 44°38' W 125°16'1211.9
2016-Aug-11 00:33N 44°26' W 125°16'6011.6
2016-Aug-10 19:24N 43°26' W 125°17'30113.0
2016-Aug-09 20:10N 38°28' W 124°18'812.6
2016-Aug-09 19:32N 38°20' W 124°16'2512.3
2016-Aug-09 17:29N 37°56' W 124°08'1112.1
2016-Aug-09 16:33N 37°50' W 123°56'1212.4
2016-Aug-09 15:33N 37°44' W 123°42'1212.4
2016-Aug-09 14:33N 37°39' W 123°28'1312.7
2016-Aug-09 13:31N 37°35' W 123°12'1313.5
2016-Aug-09 12:34N 37°38' W 122°56'1413.9
2016-Aug-09 11:33N 37°45' W 122°41'1111.1
2016-Aug-09 10:33N 37°50' W 122°28'6 6.0
2016-Aug-09 09:33N 37°55' W 122°24'2 1.9
2016-Aug-09 08:32N 37°55' W 122°22'0 0.0
2016-Aug-09 07:23N 37°55' W 122°22'0 0.0
2016-Aug-09 06:17N 37°55' W 122°22'0 0.0
2016-Aug-09 04:23N 37°55' W 122°22'0 0.0
2016-Aug-09 03:32N 37°55' W 122°22'0 0.0
2016-Aug-09 02:26N 37°55' W 122°22'0 0.0
2016-Aug-09 01:32N 37°55' W 122°22'0 0.0
2016-Aug-09 00:29N 37°55' W 122°22'0 0.0
2016-Aug-08 23:32N 37°55' W 122°22'0 0.0
2016-Aug-08 22:32N 37°55' W 122°22'0 0.0
2016-Aug-08 21:32N 37°55' W 122°22'2 2.0
2016-Aug-08 20:33N 37°55' W 122°24'1 0.7
2016-Aug-08 19:31N 37°55' W 122°25'0 0.0
2016-Aug-08 18:31N 37°55' W 122°25'0 0.0
2016-Aug-08 17:19N 37°55' W 122°25'0 0.0
2016-Aug-08 16:22N 37°55' W 122°25'0 0.0
2016-Aug-08 15:31N 37°55' W 122°25'0 0.0
2016-Aug-08 14:28N 37°55' W 122°25'0 0.0
2016-Aug-08 13:19N 37°55' W 122°25'0 0.0
2016-Aug-08 12:31N 37°55' W 122°25'0 0.0
2016-Aug-08 11:31N 37°55' W 122°25'0 0.0
2016-Aug-08 10:31N 37°55' W 122°25'0 0.0
2016-Aug-08 09:31N 37°55' W 122°25'0 0.0
2016-Aug-08 08:25N 37°55' W 122°25'0 0.0
2016-Aug-08 07:22N 37°55' W 122°25'0 0.0
2016-Aug-08 06:31N 37°55' W 122°25'0 0.0
2016-Aug-08 05:31N 37°55' W 122°25'0 0.0
2016-Aug-08 04:31N 37°55' W 122°25'0 0.0
2016-Aug-08 03:31N 37°55' W 122°25'0 0.1
2016-Aug-08 02:33N 37°55' W 122°25'7 7.1
2016-Aug-08 01:34N 37°48' W 122°23'3 2.6
2016-Aug-08 00:32N 37°46' W 122°21'0 0.1
2016-Aug-07 23:32N 37°46' W 122°21'0 0.1
2016-Aug-07 22:32N 37°46' W 122°21'  
Track history (hours):
 
Tides and Currents Weather Stations Pressure Air Temp Water Temp Dewpoint Dewpoint Depression Visibility Wind Speed Wind Dir Waves Ship Positions

Argent Gerbera

Last reported at 2016-Aug-17 22:07 UTC. Time now 2016-Aug-27 04:43 UTC.
Position N 48°31' W 126°60'.
Warning: this ship's position is 9 days out of date.

Length 175 m; draft 10.7 m.

Type: Ship (hazmat cat B). MMSI: 538003929.

Date/timePositionNaut miles runAvg speedWind from/ knotsBaromVisibWave heightAir tempDewpointWater temp
2016-Aug-17 22:07N 48°31' W 126°60'1113.6
2016-Aug-17 21:21N 48°31' W 126°44'1113.7
2016-Aug-17 20:33N 48°31' W 126°27'1414.0
2016-Aug-17 19:34N 48°31' W 126°06'1414.2
2016-Aug-17 18:33N 48°31' W 125°45'1414.2
2016-Aug-17 17:33N 48°31' W 125°23'1515.0
2016-Aug-17 16:33N 48°31' W 125°01'1615.6
2016-Aug-17 15:33N 48°29' W 124°37'1716.5
2016-Aug-17 14:33N 48°23' W 124°14'1716.9
2016-Aug-17 13:33N 48°17' W 123°50'1515.0
2016-Aug-17 12:33N 48°18' W 123°28'1212.1
2016-Aug-17 11:33N 48°25' W 123°13'1515.2
2016-Aug-17 10:33N 48°40' W 123°15'1312.9
2016-Aug-17 09:33N 48°48' W 123°01'1514.9
2016-Aug-17 08:33N 48°59' W 123°17'1313.5
2016-Aug-17 07:33N 49°12' W 123°22'1111.2
2016-Aug-17 06:33N 49°19' W 123°08'4 4.2
2016-Aug-17 05:31N 49°18' W 123°02'0 0.0
2016-Aug-17 04:33N 49°18' W 123°02'0 0.0
2016-Aug-17 03:33N 49°18' W 123°02'0 0.0
2016-Aug-17 02:33N 49°18' W 123°02'0 0.0
2016-Aug-17 01:33N 49°18' W 123°02'0 0.0
2016-Aug-17 00:34N 49°18' W 123°02'0 0.0
2016-Aug-16 23:33N 49°18' W 123°02'0 0.0
2016-Aug-16 22:33N 49°18' W 123°02'0 0.0
2016-Aug-16 21:33N 49°18' W 123°02'0 0.0
2016-Aug-16 20:33N 49°18' W 123°02'0 0.0
2016-Aug-16 19:33N 49°18' W 123°02'0 0.0
2016-Aug-16 18:33N 49°18' W 123°02'0 0.0
2016-Aug-16 17:33N 49°18' W 123°02'0 0.0
2016-Aug-16 16:33N 49°18' W 123°02'0 0.0
2016-Aug-16 15:33N 49°18' W 123°02'0 0.0
2016-Aug-16 14:33N 49°18' W 123°02'0 0.0
2016-Aug-16 13:33N 49°18' W 123°02'0 0.0
2016-Aug-16 12:33N 49°18' W 123°02'0 0.0
2016-Aug-16 11:33N 49°18' W 123°02'0 0.0
2016-Aug-16 10:33N 49°18' W 123°02'0 0.0
2016-Aug-16 09:33N 49°18' W 123°02'0 0.0
2016-Aug-16 08:33N 49°18' W 123°02'0 0.0
2016-Aug-16 07:34N 49°18' W 123°02'0 0.0
2016-Aug-16 04:33N 49°18' W 123°02'0 0.0
2016-Aug-16 03:33N 49°18' W 123°02'0 0.0
2016-Aug-16 02:33N 49°18' W 123°02'0 0.0
2016-Aug-16 01:33N 49°18' W 123°02'1 1.1
2016-Aug-16 00:33N 49°18' W 123°00'5 4.5
2016-Aug-15 23:33N 49°18' W 122°53'1 0.8
2016-Aug-15 22:32N 49°17' W 122°52'0 0.0
2016-Aug-15 21:32N 49°17' W 122°52'0 0.0
2016-Aug-15 20:32N 49°17' W 122°52'0 0.0
2016-Aug-15 19:26N 49°17' W 122°52'0 0.0
2016-Aug-15 18:32N 49°17' W 122°52'0 0.0
2016-Aug-15 17:32N 49°17' W 122°52'0 0.0
2016-Aug-15 16:29N 49°17' W 122°52'0 0.0
2016-Aug-15 15:32N 49°17' W 122°52'0 0.0
2016-Aug-15 14:32N 49°17' W 122°52'0 0.0
2016-Aug-15 13:32N 49°17' W 122°52'0 0.0
2016-Aug-15 12:32N 49°17' W 122°52'0 0.0
2016-Aug-15 11:32N 49°17' W 122°52'0 0.0
2016-Aug-15 10:32N 49°17' W 122°52'0 0.0
2016-Aug-15 09:32N 49°17' W 122°52'0 0.0
2016-Aug-15 08:32N 49°17' W 122°52'0 0.0
2016-Aug-15 07:32N 49°17' W 122°52'0 0.0
2016-Aug-15 06:32N 49°17' W 122°52'0 0.0
2016-Aug-15 04:32N 49°17' W 122°52'0 0.0
2016-Aug-15 03:32N 49°17' W 122°52'0 0.0
2016-Aug-15 02:32N 49°17' W 122°52'0 0.0
2016-Aug-15 01:32N 49°17' W 122°52'0 0.0
2016-Aug-15 00:32N 49°17' W 122°52'0 0.0
2016-Aug-14 23:23N 49°17' W 122°52'0 0.0
2016-Aug-14 22:32N 49°17' W 122°52'0 0.0
2016-Aug-14 21:29N 49°17' W 122°52'0 0.0
2016-Aug-14 20:32N 49°17' W 122°52'0 0.0
2016-Aug-14 19:32N 49°17' W 122°52'0 0.0
2016-Aug-14 18:32N 49°17' W 122°52'3 3.1
2016-Aug-14 17:33N 49°18' W 122°57'5 4.6
2016-Aug-14 16:33N 49°18' W 123°04'0 0.4
2016-Aug-14 15:33N 49°17' W 123°04'0 0.0
2016-Aug-14 14:33N 49°17' W 123°04'0 0.0
2016-Aug-14 13:33N 49°17' W 123°04'0 0.0
2016-Aug-14 12:33N 49°17' W 123°04'0 0.0
2016-Aug-14 11:33N 49°17' W 123°04'0 0.0
2016-Aug-14 10:33N 49°17' W 123°04'0 0.0
2016-Aug-14 09:33N 49°17' W 123°04'0 0.0
2016-Aug-14 08:33N 49°17' W 123°04'0 0.0
2016-Aug-14 07:30N 49°17' W 123°04'0 0.0
2016-Aug-14 06:33N 49°17' W 123°04'0 0.0
2016-Aug-14 04:33N 49°17' W 123°04'0 0.0
2016-Aug-14 03:33N 49°17' W 123°04'0 0.0
2016-Aug-14 02:33N 49°17' W 123°04'0 0.0
2016-Aug-14 01:33N 49°17' W 123°04'0 0.2
2016-Aug-14 00:33N 49°17' W 123°04'8 7.8
2016-Aug-13 23:34N 49°18' W 123°16'1413.9
2016-Aug-13 22:33N 49°04' W 123°20'1414.2
2016-Aug-13 21:33N 48°54' W 123°05'1211.5
2016-Aug-13 20:33N 48°43' W 123°10'1313.2
2016-Aug-13 19:33N 48°30' W 123°10'1313.0
2016-Aug-13 18:33N 48°20' W 123°24'1111.3
2016-Aug-13 17:33N 48°14' W 123°38'1514.5
2016-Aug-13 16:32N 48°15' W 123°60'1211.9
2016-Aug-13 15:34N 48°20' W 124°15'1414.2
2016-Aug-13 14:33N 48°26' W 124°35'1313.0
2016-Aug-13 13:33N 48°29' W 124°54'1313.2
2016-Aug-13 12:33N 48°25' W 125°13'1514.6
2016-Aug-13 11:33N 48°13' W 125°24'1414.4
2016-Aug-13 10:33N 48°01' W 125°37'1413.6
2016-Aug-13 09:33N 47°47' W 125°37'1414.0
2016-Aug-13 08:34N 47°33' W 125°37'1413.7
2016-Aug-13 07:33N 47°19' W 125°37'1211.7
2016-Aug-13 06:33N 47°11' W 125°26'1414.4
2016-Aug-13 05:33N 47°06' W 125°06'1414.4
2016-Aug-13 04:33N 47°00' W 124°47'1414.2
2016-Aug-13 03:34N 46°55' W 124°28'1110.5
2016-Aug-13 02:33N 46°53' W 124°12'8 8.1
2016-Aug-13 01:33N 46°56' W 124°01'3 0.1
2016-Aug-11 17:07N 46°58' W 123°57'3 5.9
2016-Aug-11 16:33N 46°56' W 124°01'8 8.3
2016-Aug-11 15:34N 46°53' W 124°13'5 4.9
2016-Aug-11 14:34N 46°49' W 124°16'6 6.1
2016-Aug-11 13:33N 46°47' W 124°25'1312.9
2016-Aug-11 12:33N 46°40' W 124°41'1313.5
2016-Aug-11 11:34N 46°33' W 124°57'1413.5
2016-Aug-11 10:33N 46°25' W 125°13'1413.3
2016-Aug-11 09:29N 46°14' W 125°26'1112.1
2016-Aug-11 08:34N 46°04' W 125°18'1212.2
2016-Aug-11 07:34N 45°52' W 125°16'1212.3
2016-Aug-11 06:33N 45°40' W 125°16'1212.1
2016-Aug-11 05:34N 45°28' W 125°15'1212.1
2016-Aug-11 04:34N 45°16' W 125°13'1312.6
2016-Aug-11 03:33N 45°03' W 125°15'1312.6
2016-Aug-11 02:33N 44°50' W 125°16'1312.5
2016-Aug-11 01:31N 44°38' W 125°16'1211.9
2016-Aug-11 00:33N 44°26' W 125°16'6011.6
2016-Aug-10 19:24N 43°26' W 125°17'30113.0
2016-Aug-09 20:10N 38°28' W 124°18'812.6
2016-Aug-09 19:32N 38°20' W 124°16'2512.3
2016-Aug-09 17:29N 37°56' W 124°08'1112.1
2016-Aug-09 16:33N 37°50' W 123°56'1212.4
2016-Aug-09 15:33N 37°44' W 123°42'1212.4
2016-Aug-09 14:33N 37°39' W 123°28'1312.7
2016-Aug-09 13:31N 37°35' W 123°12'1313.5
2016-Aug-09 12:34N 37°38' W 122°56'1413.9
2016-Aug-09 11:33N 37°45' W 122°41'1111.1
2016-Aug-09 10:33N 37°50' W 122°28'6 6.0
2016-Aug-09 09:33N 37°55' W 122°24'2 1.9
2016-Aug-09 08:32N 37°55' W 122°22'0 0.0
2016-Aug-09 07:23N 37°55' W 122°22'0 0.0
2016-Aug-09 06:17N 37°55' W 122°22'0 0.0
2016-Aug-09 04:23N 37°55' W 122°22'0 0.0
2016-Aug-09 03:32N 37°55' W 122°22'0 0.0
2016-Aug-09 02:26N 37°55' W 122°22'0 0.0
2016-Aug-09 01:32N 37°55' W 122°22'0 0.0
2016-Aug-09 00:29N 37°55' W 122°22'0 0.0
2016-Aug-08 23:32N 37°55' W 122°22'0 0.0
2016-Aug-08 22:32N 37°55' W 122°22'0 0.0
2016-Aug-08 21:32N 37°55' W 122°22'2 2.0
2016-Aug-08 20:33N 37°55' W 122°24'1 0.7
2016-Aug-08 19:31N 37°55' W 122°25'0 0.0
2016-Aug-08 18:31N 37°55' W 122°25'0 0.0
2016-Aug-08 17:19N 37°55' W 122°25'0 0.0
2016-Aug-08 16:22N 37°55' W 122°25'0 0.0
2016-Aug-08 15:31N 37°55' W 122°25'0 0.0
2016-Aug-08 14:28N 37°55' W 122°25'0 0.0
2016-Aug-08 13:19N 37°55' W 122°25'0 0.0
2016-Aug-08 12:31N 37°55' W 122°25'0 0.0
2016-Aug-08 11:31N 37°55' W 122°25'0 0.0
2016-Aug-08 10:31N 37°55' W 122°25'0 0.0
2016-Aug-08 09:31N 37°55' W 122°25'0 0.0
2016-Aug-08 08:25N 37°55' W 122°25'0 0.0
2016-Aug-08 07:22N 37°55' W 122°25'0 0.0
2016-Aug-08 06:31N 37°55' W 122°25'0 0.0
2016-Aug-08 05:31N 37°55' W 122°25'0 0.0
2016-Aug-08 04:31N 37°55' W 122°25'0 0.0
2016-Aug-08 03:31N 37°55' W 122°25'0 0.1
2016-Aug-08 02:33N 37°55' W 122°25'7 7.1
2016-Aug-08 01:34N 37°48' W 122°23'3 2.6
2016-Aug-08 00:32N 37°46' W 122°21'0 0.1
2016-Aug-07 23:32N 37°46' W 122°21'0 0.1
2016-Aug-07 22:32N 37°46' W 122°21'  

Dump ship's entire track history